Nora, Nebraska
Current Conditions -  °F | °C
As of 12:55 PM on Monday 20 Oct 2014 (Local Time) from KHJH Reporting Station
Clear Clear  
Wind Chill: 70°   Ceiling: Unl
Heat Index: 70°   Visibility: 10mi
Dew Point: 40°   Wind: 0mph
Humidity: 34%   Direction: NA
Pressure: 30.11"   Gusts: NA
Location:  40.2199°N, 98.0479°W
Report Text: KHJH 201755Z AUTO 00000KT 10SM CLR 21/05 A3011 RMK AO2 T02110045 10211 20060
Loading
Personal Weather Stations






























Interactive Weather Map New forecast layout! Learn more

10-Day Weather Forecast

Advertisements
Track Severe Weather on mobile